Hovedside
METAR-TAF:

METAR-TAF

Lufthavner :

Lakselv lufthavn. Banak

Lakselv, Norge

breddegrad: 70-04N, lengdegrad: 024-59E, høyde over havet: 0 m

Gjeldene værobservasjon

Denne rapporten ble laget for 17 minutter siden, klokken 14:20 UTC
Vind 9 kt fra Nord-nordvest
Temperatur 22°C
Luftfuktighet 60%
Trykk 1017 hPa
Sikt 10 km eller mer
ingen skyer under 1500 m og ingen bygeskyer

METAR: ENNA 181420Z 34009KT CAVOK 22/14 Q1017 RMK WIND 1800FT 19009KT

Tid: 16:37 (14:37 UTC)

Varsel

Varsel gyldig fra 18. klokken 12 UTC til 19. klokken 12 UTC
Vind 5 kt fra Nord
Sikt 10 km eller mer
Få skyer i en høyde av 5000 ft
Blir
fra 19. klokken 00 UTC til 19. klokken 03 UTC
Vind 10 kt fra Sør
Sannsynlighet 30% :
Midlertidig
fra 18. klokken 15 UTC til 19. klokken 06 UTC
Spredte skyer i en høyde av 4000 ft, Bygeskyer.
torden, regn

TAF: ENNA 1812/1912 36005KT 9999 FEW050 BECMG 1900/1903 18010KT PROB30 TEMPO 1815/1906 TSRA SCT040CB

Værobservasjoner og værvarsel for over 4000 flyplasser (METAR- og TAF-rapporter).

Tilgjengelige stasjoner er representert av de røde og gule prikkene på kartet.

Hold musepekeren over prikken for å se navnet på stasjonen.

Klikk så for å se værobservasjoner og -varsler.

For å forandre kartet kan du klikke på den grønne knappen med svart kryss for å zoome inn, på den grønne knappen med strek for å zoome ut, eller på de grønne pilene for å se tilstøtende kart.


METAR-TAF: